sensor_id;sensor_type;location;lat;lon;timestamp;P1;durP1;ratioP1;P2;durP2;ratioP2
4001;SDS011;2015;48.670;9.060;2023-03-01T00:01:36;32.23;;;17.30;;
4001;SDS011;2015;48.670;9.060;2023-03-01T00:04:08;24.77;;;19.50;;
4001;SDS011;2015;48.670;9.060;2023-03-01T00:06:42;24.90;;;17.20;;
4001;SDS011;2015;48.670;9.060;2023-03-01T00:09:17;33.53;;;17.53;;
4001;SDS011;2015;48.670;9.060;2023-03-01T00:11:49;27.23;;;17.70;;
4001;SDS011;2015;48.670;9.060;2023-03-01T00:14:21;28.10;;;18.87;;
4001;SDS011;2015;48.670;9.060;2023-03-01T00:16:53;28.87;;;18.30;;
4001;SDS011;2015;48.670;9.060;2023-03-01T00:19:25;28.13;;;16.97;;
4001;SDS011;2015;48.670;9.060;2023-03-01T00:21:56;25.33;;;16.90;;
4001;SDS011;2015;48.670;9.060;2023-03-01T00:24:28;26.23;;;16.20;;
4001;SDS011;2015;48.670;9.060;2023-03-01T00:27:00;22.77;;;18.30;;
4001;SDS011;2015;48.670;9.060;2023-03-01T00:29:32;31.00;;;18.00;;
4001;SDS011;2015;48.670;9.060;2023-03-01T00:32:03;34.13;;;17.40;;
4001;SDS011;2015;48.670;9.060;2023-03-01T00:34:35;36.50;;;19.60;;
4001;SDS011;2015;48.670;9.060;2023-03-01T00:37:07;27.93;;;18.23;;
4001;SDS011;2015;48.670;9.060;2023-03-01T00:39:39;27.03;;;17.33;;
4001;SDS011;2015;48.670;9.060;2023-03-01T00:42:11;26.67;;;15.38;;
4001;SDS011;2015;48.670;9.060;2023-03-01T00:44:42;28.60;;;15.97;;
4001;SDS011;2015;48.670;9.060;2023-03-01T00:47:14;31.73;;;17.80;;
4001;SDS011;2015;48.670;9.060;2023-03-01T00:49:46;31.03;;;19.03;;
4001;SDS011;2015;48.670;9.060;2023-03-01T00:52:18;33.43;;;18.93;;
4001;SDS011;2015;48.670;9.060;2023-03-01T00:54:51;31.10;;;17.37;;
4001;SDS011;2015;48.670;9.060;2023-03-01T00:57:24;27.60;;;16.80;;
4001;SDS011;2015;48.670;9.060;2023-03-01T00:59:55;24.80;;;16.07;;
4001;SDS011;2015;48.670;9.060;2023-03-01T01:02:27;27.63;;;16.20;;
4001;SDS011;2015;48.670;9.060;2023-03-01T01:04:59;35.60;;;20.03;;
4001;SDS011;2015;48.670;9.060;2023-03-01T01:07:31;35.13;;;18.40;;
4001;SDS011;2015;48.670;9.060;2023-03-01T01:10:03;25.50;;;17.40;;
4001;SDS011;2015;48.670;9.060;2023-03-01T01:12:35;34.13;;;17.67;;
4001;SDS011;2015;48.670;9.060;2023-03-01T01:15:06;29.10;;;17.57;;
4001;SDS011;2015;48.670;9.060;2023-03-01T01:17:39;36.73;;;17.57;;
4001;SDS011;2015;48.670;9.060;2023-03-01T01:20:11;30.83;;;16.90;;
4001;SDS011;2015;48.670;9.060;2023-03-01T01:22:43;34.33;;;19.30;;
4001;SDS011;2015;48.670;9.060;2023-03-01T01:25:15;23.90;;;16.57;;
4001;SDS011;2015;48.670;9.060;2023-03-01T01:27:47;21.80;;;15.97;;
4001;SDS011;2015;48.670;9.060;2023-03-01T01:30:18;30.90;;;17.90;;
4001;SDS011;2015;48.670;9.060;2023-03-01T01:32:50;26.73;;;16.70;;
4001;SDS011;2015;48.670;9.060;2023-03-01T01:35:22;26.93;;;16.57;;
4001;SDS011;2015;48.670;9.060;2023-03-01T01:37:54;29.02;;;20.65;;
4001;SDS011;2015;48.670;9.060;2023-03-01T01:40:25;28.77;;;18.57;;
4001;SDS011;2015;48.670;9.060;2023-03-01T01:42:57;30.80;;;17.60;;
4001;SDS011;2015;48.670;9.060;2023-03-01T01:45:31;30.53;;;18.50;;
4001;SDS011;2015;48.670;9.060;2023-03-01T01:48:10;29.70;;;17.23;;
4001;SDS011;2015;48.670;9.060;2023-03-01T01:50:51;29.53;;;18.83;;
4001;SDS011;2015;48.670;9.060;2023-03-01T01:53:31;35.30;;;18.97;;
4001;SDS011;2015;48.670;9.060;2023-03-01T01:56:03;32.27;;;19.17;;
4001;SDS011;2015;48.670;9.060;2023-03-01T01:58:39;29.03;;;19.07;;
4001;SDS011;2015;48.670;9.060;2023-03-01T02:01:13;30.70;;;17.90;;
4001;SDS011;2015;48.670;9.060;2023-03-01T02:03:45;27.90;;;17.90;;
4001;SDS011;2015;48.670;9.060;2023-03-01T02:06:26;25.73;;;17.37;;
4001;SDS011;2015;48.670;9.060;2023-03-01T02:09:07;25.10;;;17.13;;
4001;SDS011;2015;48.670;9.060;2023-03-01T02:11:41;33.37;;;20.10;;
4001;SDS011;2015;48.670;9.060;2023-03-01T02:14:15;29.37;;;18.57;;
4001;SDS011;2015;48.670;9.060;2023-03-01T02:16:47;28.53;;;18.00;;
4001;SDS011;2015;48.670;9.060;2023-03-01T02:19:23;34.20;;;18.30;;
4001;SDS011;2015;48.670;9.060;2023-03-01T02:22:24;28.60;;;16.73;;
4001;SDS011;2015;48.670;9.060;2023-03-01T02:25:03;35.97;;;20.40;;
4001;SDS011;2015;48.670;9.060;2023-03-01T02:30:48;30.50;;;18.63;;
4001;SDS011;2015;48.670;9.060;2023-03-01T02:33:39;27.13;;;17.47;;
4001;SDS011;2015;48.670;9.060;2023-03-01T02:39:26;32.77;;;18.10;;
4001;SDS011;2015;48.670;9.060;2023-03-01T02:42:13;38.33;;;20.20;;
4001;SDS011;2015;48.670;9.060;2023-03-01T02:44:49;29.33;;;19.03;;
4001;SDS011;2015;48.670;9.060;2023-03-01T02:47:21;27.40;;;17.77;;
4001;SDS011;2015;48.670;9.060;2023-03-01T02:49:53;31.27;;;17.70;;
4001;SDS011;2015;48.670;9.060;2023-03-01T02:52:37;22.27;;;16.70;;
4001;SDS011;2015;48.670;9.060;2023-03-01T02:55:18;27.77;;;18.37;;
4001;SDS011;2015;48.670;9.060;2023-03-01T02:57:50;33.93;;;17.57;;
4001;SDS011;2015;48.670;9.060;2023-03-01T03:00:24;29.80;;;19.17;;
4001;SDS011;2015;48.670;9.060;2023-03-01T03:03:01;30.77;;;19.77;;
4001;SDS011;2015;48.670;9.060;2023-03-01T03:05:33;37.15;;;21.25;;
4001;SDS011;2015;48.670;9.060;2023-03-01T03:08:05;33.37;;;21.67;;
4001;SDS011;2015;48.670;9.060;2023-03-01T03:10:39;35.63;;;20.40;;
4001;SDS011;2015;48.670;9.060;2023-03-01T03:13:12;25.23;;;18.43;;
4001;SDS011;2015;48.670;9.060;2023-03-01T03:15:45;25.70;;;18.30;;
4001;SDS011;2015;48.670;9.060;2023-03-01T03:18:17;26.93;;;18.43;;
4001;SDS011;2015;48.670;9.060;2023-03-01T03:20:49;31.53;;;17.87;;
4001;SDS011;2015;48.670;9.060;2023-03-01T03:23:24;29.50;;;19.00;;
4001;SDS011;2015;48.670;9.060;2023-03-01T03:25:55;30.92;;;20.98;;
4001;SDS011;2015;48.670;9.060;2023-03-01T03:28:27;29.50;;;19.50;;
4001;SDS011;2015;48.670;9.060;2023-03-01T03:30:59;30.60;;;20.03;;
4001;SDS011;2015;48.670;9.060;2023-03-01T03:33:34;27.77;;;19.47;;
4001;SDS011;2015;48.670;9.060;2023-03-01T03:36:07;33.27;;;20.20;;
4001;SDS011;2015;48.670;9.060;2023-03-01T03:38:44;26.37;;;18.80;;
4001;SDS011;2015;48.670;9.060;2023-03-01T03:41:17;26.83;;;17.50;;
4001;SDS011;2015;48.670;9.060;2023-03-01T03:43:49;30.53;;;18.40;;
4001;SDS011;2015;48.670;9.060;2023-03-01T03:46:20;34.40;;;19.03;;
4001;SDS011;2015;48.670;9.060;2023-03-01T03:48:52;28.17;;;19.63;;
4001;SDS011;2015;48.670;9.060;2023-03-01T03:51:24;30.20;;;19.27;;
4001;SDS011;2015;48.670;9.060;2023-03-01T03:53:56;28.63;;;19.07;;
4001;SDS011;2015;48.670;9.060;2023-03-01T03:56:27;28.37;;;19.03;;
4001;SDS011;2015;48.670;9.060;2023-03-01T03:59:00;34.95;;;20.95;;
4001;SDS011;2015;48.670;9.060;2023-03-01T04:01:32;34.33;;;20.77;;
4001;SDS011;2015;48.670;9.060;2023-03-01T04:04:04;33.00;;;20.13;;
4001;SDS011;2015;48.670;9.060;2023-03-01T04:06:35;34.27;;;20.47;;
4001;SDS011;2015;48.670;9.060;2023-03-01T04:09:07;27.37;;;18.50;;
4001;SDS011;2015;48.670;9.060;2023-03-01T04:11:39;33.27;;;19.20;;
4001;SDS011;2015;48.670;9.060;2023-03-01T04:14:10;28.90;;;19.60;;
4001;SDS011;2015;48.670;9.060;2023-03-01T04:16:42;33.43;;;20.43;;
4001;SDS011;2015;48.670;9.060;2023-03-01T04:19:14;31.58;;;20.17;;
4001;SDS011;2015;48.670;9.060;2023-03-01T04:21:46;34.60;;;21.67;;
4001;SDS011;2015;48.670;9.060;2023-03-01T04:24:17;30.33;;;19.50;;
4001;SDS011;2015;48.670;9.060;2023-03-01T04:26:49;25.50;;;17.83;;
4001;SDS011;2015;48.670;9.060;2023-03-01T04:29:21;32.60;;;19.20;;
4001;SDS011;2015;48.670;9.060;2023-03-01T04:31:53;34.37;;;19.87;;
4001;SDS011;2015;48.670;9.060;2023-03-01T04:34:25;28.43;;;19.37;;
4001;SDS011;2015;48.670;9.060;2023-03-01T04:36:59;33.77;;;21.40;;
4001;SDS011;2015;48.670;9.060;2023-03-01T04:39:31;36.10;;;20.80;;
4001;SDS011;2015;48.670;9.060;2023-03-01T04:42:03;28.33;;;17.30;;
4001;SDS011;2015;48.670;9.060;2023-03-01T04:44:35;34.30;;;21.43;;
4001;SDS011;2015;48.670;9.060;2023-03-01T04:47:07;33.90;;;21.53;;
4001;SDS011;2015;48.670;9.060;2023-03-01T04:49:39;33.43;;;19.73;;
4001;SDS011;2015;48.670;9.060;2023-03-01T04:52:10;28.50;;;20.07;;
4001;SDS011;2015;48.670;9.060;2023-03-01T04:54:42;30.73;;;21.30;;
4001;SDS011;2015;48.670;9.060;2023-03-01T04:57:14;33.37;;;19.20;;
4001;SDS011;2015;48.670;9.060;2023-03-01T04:59:46;35.90;;;20.33;;
4001;SDS011;2015;48.670;9.060;2023-03-01T05:02:17;25.77;;;18.50;;
4001;SDS011;2015;48.670;9.060;2023-03-01T05:04:49;30.67;;;19.00;;
4001;SDS011;2015;48.670;9.060;2023-03-01T05:07:21;29.57;;;19.60;;
4001;SDS011;2015;48.670;9.060;2023-03-01T05:09:53;34.83;;;20.77;;
4001;SDS011;2015;48.670;9.060;2023-03-01T05:12:25;34.77;;;21.07;;
4001;SDS011;2015;48.670;9.060;2023-03-01T05:14:57;32.53;;;21.58;;
4001;SDS011;2015;48.670;9.060;2023-03-01T05:17:29;34.87;;;24.30;;
4001;SDS011;2015;48.670;9.060;2023-03-01T05:20:01;33.93;;;20.83;;
4001;SDS011;2015;48.670;9.060;2023-03-01T05:22:37;35.13;;;20.00;;
4001;SDS011;2015;48.670;9.060;2023-03-01T05:25:09;30.57;;;19.77;;
4001;SDS011;2015;48.670;9.060;2023-03-01T05:27:41;36.50;;;20.60;;
4001;SDS011;2015;48.670;9.060;2023-03-01T05:30:13;32.40;;;20.27;;
4001;SDS011;2015;48.670;9.060;2023-03-01T05:32:46;32.50;;;21.00;;
4001;SDS011;2015;48.670;9.060;2023-03-01T05:35:19;32.77;;;21.50;;
4001;SDS011;2015;48.670;9.060;2023-03-01T05:37:51;33.53;;;21.37;;
4001;SDS011;2015;48.670;9.060;2023-03-01T05:40:23;31.03;;;19.23;;
4001;SDS011;2015;48.670;9.060;2023-03-01T05:42:56;29.63;;;20.67;;
4001;SDS011;2015;48.670;9.060;2023-03-01T05:45:28;32.10;;;21.40;;
4001;SDS011;2015;48.670;9.060;2023-03-01T05:48:00;36.22;;;21.73;;
4001;SDS011;2015;48.670;9.060;2023-03-01T05:50:33;31.83;;;20.00;;
4001;SDS011;2015;48.670;9.060;2023-03-01T05:53:09;32.83;;;20.60;;
4001;SDS011;2015;48.670;9.060;2023-03-01T05:55:43;31.20;;;20.50;;
4001;SDS011;2015;48.670;9.060;2023-03-01T05:58:19;41.50;;;22.30;;
4001;SDS011;2015;48.670;9.060;2023-03-01T06:00:51;37.50;;;21.27;;
4001;SDS011;2015;48.670;9.060;2023-03-01T06:03:25;32.17;;;21.33;;
4001;SDS011;2015;48.670;9.060;2023-03-01T06:05:57;34.03;;;20.30;;
4001;SDS011;2015;48.670;9.060;2023-03-01T06:08:29;37.75;;;22.25;;
4001;SDS011;2015;48.670;9.060;2023-03-01T06:11:01;27.57;;;19.47;;
4001;SDS011;2015;48.670;9.060;2023-03-01T06:13:33;35.40;;;20.70;;
4001;SDS011;2015;48.670;9.060;2023-03-01T06:16:05;37.13;;;22.67;;
4001;SDS011;2015;48.670;9.060;2023-03-01T06:18:37;29.60;;;18.80;;
4001;SDS011;2015;48.670;9.060;2023-03-01T06:21:09;37.47;;;19.80;;
4001;SDS011;2015;48.670;9.060;2023-03-01T06:23:41;32.17;;;20.77;;
4001;SDS011;2015;48.670;9.060;2023-03-01T06:26:13;31.93;;;21.23;;
4001;SDS011;2015;48.670;9.060;2023-03-01T06:28:45;27.07;;;19.30;;
4001;SDS011;2015;48.670;9.060;2023-03-01T06:31:17;29.73;;;19.23;;
4001;SDS011;2015;48.670;9.060;2023-03-01T06:33:49;34.67;;;21.63;;
4001;SDS011;2015;48.670;9.060;2023-03-01T06:36:20;32.73;;;20.67;;
4001;SDS011;2015;48.670;9.060;2023-03-01T06:38:53;46.37;;;21.70;;
4001;SDS011;2015;48.670;9.060;2023-03-01T06:41:24;41.20;;;20.35;;
4001;SDS011;2015;48.670;9.060;2023-03-01T06:43:56;40.67;;;21.50;;
4001;SDS011;2015;48.670;9.060;2023-03-01T06:46:28;37.57;;;21.30;;
4001;SDS011;2015;48.670;9.060;2023-03-01T06:49:00;29.97;;;18.40;;
4001;SDS011;2015;48.670;9.060;2023-03-01T06:51:32;32.03;;;19.80;;
4001;SDS011;2015;48.670;9.060;2023-03-01T06:54:04;35.33;;;20.73;;
4001;SDS011;2015;48.670;9.060;2023-03-01T06:56:36;32.87;;;20.40;;
4001;SDS011;2015;48.670;9.060;2023-03-01T06:59:07;28.07;;;19.47;;
4001;SDS011;2015;48.670;9.060;2023-03-01T07:01:39;31.40;;;20.37;;
4001;SDS011;2015;48.670;9.060;2023-03-01T07:04:12;35.47;;;19.80;;
4001;SDS011;2015;48.670;9.060;2023-03-01T07:06:44;33.10;;;19.83;;
4001;SDS011;2015;48.670;9.060;2023-03-01T07:09:15;28.93;;;20.43;;
4001;SDS011;2015;48.670;9.060;2023-03-01T07:11:50;37.43;;;21.20;;
4001;SDS011;2015;48.670;9.060;2023-03-01T07:14:22;30.97;;;20.80;;
4001;SDS011;2015;48.670;9.060;2023-03-01T07:16:58;32.00;;;20.00;;
4001;SDS011;2015;48.670;9.060;2023-03-01T07:19:30;37.90;;;21.70;;
4001;SDS011;2015;48.670;9.060;2023-03-01T07:22:03;37.87;;;20.43;;
4001;SDS011;2015;48.670;9.060;2023-03-01T07:24:35;33.13;;;20.90;;
4001;SDS011;2015;48.670;9.060;2023-03-01T07:27:07;35.40;;;20.97;;
4001;SDS011;2015;48.670;9.060;2023-03-01T07:29:39;31.50;;;20.90;;
4001;SDS011;2015;48.670;9.060;2023-03-01T07:32:11;34.53;;;21.33;;
4001;SDS011;2015;48.670;9.060;2023-03-01T07:34:43;35.47;;;21.20;;
4001;SDS011;2015;48.670;9.060;2023-03-01T07:37:14;38.57;;;20.60;;
4001;SDS011;2015;48.670;9.060;2023-03-01T07:39:46;39.93;;;20.37;;
4001;SDS011;2015;48.670;9.060;2023-03-01T07:42:18;37.53;;;22.20;;
4001;SDS011;2015;48.670;9.060;2023-03-01T07:44:49;37.53;;;21.30;;
4001;SDS011;2015;48.670;9.060;2023-03-01T07:47:21;32.83;;;21.40;;
4001;SDS011;2015;48.670;9.060;2023-03-01T07:49:53;36.47;;;22.67;;
4001;SDS011;2015;48.670;9.060;2023-03-01T07:52:25;37.10;;;21.37;;
4001;SDS011;2015;48.670;9.060;2023-03-01T07:54:56;42.13;;;21.50;;
4001;SDS011;2015;48.670;9.060;2023-03-01T07:57:29;39.57;;;22.47;;
4001;SDS011;2015;48.670;9.060;2023-03-01T08:00:01;39.40;;;23.00;;
4001;SDS011;2015;48.670;9.060;2023-03-01T08:02:32;37.43;;;21.63;;
4001;SDS011;2015;48.670;9.060;2023-03-01T08:05:04;43.40;;;22.63;;
4001;SDS011;2015;48.670;9.060;2023-03-01T08:07:36;30.20;;;19.87;;
4001;SDS011;2015;48.670;9.060;2023-03-01T08:10:09;31.80;;;20.37;;
4001;SDS011;2015;48.670;9.060;2023-03-01T08:12:41;34.87;;;21.73;;
4001;SDS011;2015;48.670;9.060;2023-03-01T08:15:13;30.70;;;20.60;;
4001;SDS011;2015;48.670;9.060;2023-03-01T08:17:45;42.47;;;23.47;;
4001;SDS011;2015;48.670;9.060;2023-03-01T08:20:16;38.90;;;21.17;;
4001;SDS011;2015;48.670;9.060;2023-03-01T08:22:50;41.80;;;21.87;;
4001;SDS011;2015;48.670;9.060;2023-03-01T08:25:22;42.87;;;22.90;;
4001;SDS011;2015;48.670;9.060;2023-03-01T08:27:53;38.10;;;22.13;;
4001;SDS011;2015;48.670;9.060;2023-03-01T08:30:25;38.45;;;23.48;;
4001;SDS011;2015;48.670;9.060;2023-03-01T08:32:57;43.50;;;25.53;;
4001;SDS011;2015;48.670;9.060;2023-03-01T08:35:29;33.27;;;20.43;;
4001;SDS011;2015;48.670;9.060;2023-03-01T08:38:01;35.70;;;22.03;;
4001;SDS011;2015;48.670;9.060;2023-03-01T08:40:33;36.70;;;20.40;;
4001;SDS011;2015;48.670;9.060;2023-03-01T08:43:04;35.67;;;22.20;;
4001;SDS011;2015;48.670;9.060;2023-03-01T08:45:36;38.23;;;22.93;;
4001;SDS011;2015;48.670;9.060;2023-03-01T08:48:08;38.33;;;22.50;;
4001;SDS011;2015;48.670;9.060;2023-03-01T08:50:40;37.63;;;23.90;;
4001;SDS011;2015;48.670;9.060;2023-03-01T08:53:12;34.50;;;23.10;;
4001;SDS011;2015;48.670;9.060;2023-03-01T08:55:44;36.67;;;21.57;;
4001;SDS011;2015;48.670;9.060;2023-03-01T08:58:16;37.90;;;23.43;;
4001;SDS011;2015;48.670;9.060;2023-03-01T09:00:47;39.83;;;23.23;;
4001;SDS011;2015;48.670;9.060;2023-03-01T09:03:19;37.27;;;21.60;;
4001;SDS011;2015;48.670;9.060;2023-03-01T09:05:51;34.53;;;21.33;;
4001;SDS011;2015;48.670;9.060;2023-03-01T09:08:24;39.17;;;23.30;;
4001;SDS011;2015;48.670;9.060;2023-03-01T09:10:55;38.53;;;22.00;;
4001;SDS011;2015;48.670;9.060;2023-03-01T09:13:27;38.63;;;22.53;;
4001;SDS011;2015;48.670;9.060;2023-03-01T09:16:03;42.23;;;22.37;;
4001;SDS011;2015;48.670;9.060;2023-03-01T09:18:36;35.77;;;22.57;;
4001;SDS011;2015;48.670;9.060;2023-03-01T09:21:12;36.90;;;20.73;;
4001;SDS011;2015;48.670;9.060;2023-03-01T09:23:46;35.63;;;20.60;;
4001;SDS011;2015;48.670;9.060;2023-03-01T09:26:19;36.23;;;21.73;;
4001;SDS011;2015;48.670;9.060;2023-03-01T09:28:53;33.73;;;22.47;;
4001;SDS011;2015;48.670;9.060;2023-03-01T09:31:27;37.47;;;22.17;;
4001;SDS011;2015;48.670;9.060;2023-03-01T09:33:58;35.13;;;22.80;;
4001;SDS011;2015;48.670;9.060;2023-03-01T09:36:30;36.43;;;22.40;;
4001;SDS011;2015;48.670;9.060;2023-03-01T09:39:03;37.10;;;23.07;;
4001;SDS011;2015;48.670;9.060;2023-03-01T09:52:50;37.20;;;22.83;;
4001;SDS011;2015;48.670;9.060;2023-03-01T09:55:33;36.77;;;19.50;;
4001;SDS011;2015;48.670;9.060;2023-03-01T10:01:20;35.33;;;20.30;;
4001;SDS011;2015;48.670;9.060;2023-03-01T10:06:51;26.17;;;20.17;;
4001;SDS011;2015;48.670;9.060;2023-03-01T10:09:39;43.63;;;21.10;;
4001;SDS011;2015;48.670;9.060;2023-03-01T10:12:34;25.00;;;21.87;;
4001;SDS011;2015;48.670;9.060;2023-03-01T10:15:20;27.43;;;21.43;;
4001;SDS011;2015;48.670;9.060;2023-03-01T10:18:04;27.70;;;21.13;;
4001;SDS011;2015;48.670;9.060;2023-03-01T10:20:50;25.50;;;21.30;;
4001;SDS011;2015;48.670;9.060;2023-03-01T10:23:34;31.97;;;21.57;;
4001;SDS011;2015;48.670;9.060;2023-03-01T10:26:20;30.67;;;21.33;;
4001;SDS011;2015;48.670;9.060;2023-03-01T10:28:58;31.93;;;21.40;;
4001;SDS011;2015;48.670;9.060;2023-03-01T10:31:49;30.40;;;22.93;;
4001;SDS011;2015;48.670;9.060;2023-03-01T10:34:30;30.43;;;20.97;;
4001;SDS011;2015;48.670;9.060;2023-03-01T10:37:37;34.93;;;22.50;;
4001;SDS011;2015;48.670;9.060;2023-03-01T10:40:03;32.50;;;20.90;;
4001;SDS011;2015;48.670;9.060;2023-03-01T10:42:45;34.27;;;22.33;;
4001;SDS011;2015;48.670;9.060;2023-03-01T10:48:43;31.00;;;21.60;;
4001;SDS011;2015;48.670;9.060;2023-03-01T10:53:34;30.27;;;21.37;;
4001;SDS011;2015;48.670;9.060;2023-03-01T10:56:12;28.73;;;19.97;;
4001;SDS011;2015;48.670;9.060;2023-03-01T10:58:56;28.93;;;21.17;;
4001;SDS011;2015;48.670;9.060;2023-03-01T11:01:33;26.77;;;19.90;;
4001;SDS011;2015;48.670;9.060;2023-03-01T11:06:39;28.77;;;20.43;;
4001;SDS011;2015;48.670;9.060;2023-03-01T11:09:17;28.40;;;21.17;;
4001;SDS011;2015;48.670;9.060;2023-03-01T11:11:54;29.40;;;19.87;;
4001;SDS011;2015;48.670;9.060;2023-03-01T11:14:29;27.90;;;20.47;;
4001;SDS011;2015;48.670;9.060;2023-03-01T11:17:13;31.20;;;21.07;;
4001;SDS011;2015;48.670;9.060;2023-03-01T11:23:10;31.60;;;20.10;;
4001;SDS011;2015;48.670;9.060;2023-03-01T11:25:46;31.00;;;22.20;;
4001;SDS011;2015;48.670;9.060;2023-03-01T11:28:37;32.20;;;22.13;;
4001;SDS011;2015;48.670;9.060;2023-03-01T11:31:11;31.48;;;22.73;;
4001;SDS011;2015;48.670;9.060;2023-03-01T11:33:53;29.97;;;21.63;;
4001;SDS011;2015;48.670;9.060;2023-03-01T11:36:46;30.70;;;20.70;;
4001;SDS011;2015;48.670;9.060;2023-03-01T11:39:27;28.27;;;20.03;;
4001;SDS011;2015;48.670;9.060;2023-03-01T11:42:37;29.50;;;21.57;;
4001;SDS011;2015;48.670;9.060;2023-03-01T11:45:19;32.27;;;22.37;;
4001;SDS011;2015;48.670;9.060;2023-03-01T11:50:38;32.33;;;23.30;;
4001;SDS011;2015;48.670;9.060;2023-03-01T11:53:20;33.07;;;22.10;;
4001;SDS011;2015;48.670;9.060;2023-03-01T11:59:07;37.90;;;20.27;;
4001;SDS011;2015;48.670;9.060;2023-03-01T12:07:29;36.63;;;22.97;;
4001;SDS011;2015;48.670;9.060;2023-03-01T12:15:38;31.20;;;21.37;;
4001;SDS011;2015;48.670;9.060;2023-03-01T12:19:10;31.57;;;20.87;;
4001;SDS011;2015;48.670;9.060;2023-03-01T12:38:50;32.60;;;20.00;;
4001;SDS011;2015;48.670;9.060;2023-03-01T12:44:57;34.67;;;19.33;;
4001;SDS011;2015;48.670;9.060;2023-03-01T12:48:19;38.37;;;22.57;;
4001;SDS011;2015;48.670;9.060;2023-03-01T12:51:06;28.63;;;20.00;;
4001;SDS011;2015;48.670;9.060;2023-03-01T12:53:45;29.07;;;19.50;;
4001;SDS011;2015;48.670;9.060;2023-03-01T12:56:23;34.17;;;19.50;;
4001;SDS011;2015;48.670;9.060;2023-03-01T13:01:38;31.80;;;20.97;;
4001;SDS011;2015;48.670;9.060;2023-03-01T13:09:55;30.13;;;19.20;;
4001;SDS011;2015;48.670;9.060;2023-03-01T13:12:50;32.97;;;20.97;;
4001;SDS011;2015;48.670;9.060;2023-03-01T13:18:36;27.23;;;18.77;;
4001;SDS011;2015;48.670;9.060;2023-03-01T13:20:57;33.20;;;20.15;;
4001;SDS011;2015;48.670;9.060;2023-03-01T13:23:32;32.30;;;20.63;;
4001;SDS011;2015;48.670;9.060;2023-03-01T13:26:15;30.97;;;20.27;;
4001;SDS011;2015;48.670;9.060;2023-03-01T13:28:55;26.73;;;18.70;;
4001;SDS011;2015;48.670;9.060;2023-03-01T13:34:00;25.40;;;17.80;;
4001;SDS011;2015;48.670;9.060;2023-03-01T13:36:48;26.17;;;18.33;;
4001;SDS011;2015;48.670;9.060;2023-03-01T13:39:28;28.00;;;18.80;;
4001;SDS011;2015;48.670;9.060;2023-03-01T13:42:25;27.13;;;18.73;;
4001;SDS011;2015;48.670;9.060;2023-03-01T13:44:58;24.23;;;17.50;;
4001;SDS011;2015;48.670;9.060;2023-03-01T13:47:30;23.20;;;18.73;;
4001;SDS011;2015;48.670;9.060;2023-03-01T13:50:05;25.40;;;18.40;;
4001;SDS011;2015;48.670;9.060;2023-03-01T13:52:42;26.07;;;17.37;;
4001;SDS011;2015;48.670;9.060;2023-03-01T13:55:23;31.63;;;17.70;;
4001;SDS011;2015;48.670;9.060;2023-03-01T13:58:00;26.40;;;16.90;;
4001;SDS011;2015;48.670;9.060;2023-03-01T14:00:36;23.50;;;17.57;;
4001;SDS011;2015;48.670;9.060;2023-03-01T14:03:19;25.53;;;16.10;;
4001;SDS011;2015;48.670;9.060;2023-03-01T14:05:59;23.40;;;17.60;;
4001;SDS011;2015;48.670;9.060;2023-03-01T14:08:46;27.20;;;17.43;;
4001;SDS011;2015;48.670;9.060;2023-03-01T14:11:38;29.43;;;17.33;;
4001;SDS011;2015;48.670;9.060;2023-03-01T14:14:30;26.35;;;17.08;;
4001;SDS011;2015;48.670;9.060;2023-03-01T14:19:59;32.33;;;19.23;;
4001;SDS011;2015;48.670;9.060;2023-03-01T14:22:35;25.03;;;17.83;;
4001;SDS011;2015;48.670;9.060;2023-03-01T14:30:49;32.50;;;19.53;;
4001;SDS011;2015;48.670;9.060;2023-03-01T14:33:27;31.20;;;18.60;;
4001;SDS011;2015;48.670;9.060;2023-03-01T14:36:12;33.40;;;20.60;;
4001;SDS011;2015;48.670;9.060;2023-03-01T14:38:45;29.53;;;21.63;;
4001;SDS011;2015;48.670;9.060;2023-03-01T14:41:19;29.30;;;20.37;;
4001;SDS011;2015;48.670;9.060;2023-03-01T14:43:55;37.43;;;19.90;;
4001;SDS011;2015;48.670;9.060;2023-03-01T14:46:33;28.37;;;19.40;;
4001;SDS011;2015;48.670;9.060;2023-03-01T14:49:11;30.90;;;20.67;;
4001;SDS011;2015;48.670;9.060;2023-03-01T14:51:52;32.40;;;20.30;;
4001;SDS011;2015;48.670;9.060;2023-03-01T14:54:41;35.20;;;23.43;;
4001;SDS011;2015;48.670;9.060;2023-03-01T14:57:17;42.43;;;22.63;;
4001;SDS011;2015;48.670;9.060;2023-03-01T14:59:53;32.73;;;21.17;;
4001;SDS011;2015;48.670;9.060;2023-03-01T15:02:28;30.57;;;18.37;;
4001;SDS011;2015;48.670;9.060;2023-03-01T15:05:02;31.90;;;19.67;;
4001;SDS011;2015;48.670;9.060;2023-03-01T15:07:39;35.00;;;21.97;;
4001;SDS011;2015;48.670;9.060;2023-03-01T15:10:21;35.00;;;20.97;;
4001;SDS011;2015;48.670;9.060;2023-03-01T15:12:55;30.70;;;18.30;;
4001;SDS011;2015;48.670;9.060;2023-03-01T15:18:17;33.43;;;21.13;;
4001;SDS011;2015;48.670;9.060;2023-03-01T15:20:51;34.63;;;19.83;;
4001;SDS011;2015;48.670;9.060;2023-03-01T15:23:25;37.83;;;21.70;;
4001;SDS011;2015;48.670;9.060;2023-03-01T15:25:59;32.90;;;21.30;;
4001;SDS011;2015;48.670;9.060;2023-03-01T15:28:37;34.30;;;23.97;;
4001;SDS011;2015;48.670;9.060;2023-03-01T15:31:38;32.30;;;21.77;;
4001;SDS011;2015;48.670;9.060;2023-03-01T15:34:11;29.17;;;19.27;;
4001;SDS011;2015;48.670;9.060;2023-03-01T15:37:06;32.33;;;19.90;;
4001;SDS011;2015;48.670;9.060;2023-03-01T15:39:58;33.67;;;20.67;;
4001;SDS011;2015;48.670;9.060;2023-03-01T15:45:20;33.83;;;19.77;;
4001;SDS011;2015;48.670;9.060;2023-03-01T15:47:55;33.73;;;21.17;;
4001;SDS011;2015;48.670;9.060;2023-03-01T15:50:32;34.33;;;20.63;;
4001;SDS011;2015;48.670;9.060;2023-03-01T15:53:10;31.97;;;22.70;;
4001;SDS011;2015;48.670;9.060;2023-03-01T15:55:45;29.43;;;20.40;;
4001;SDS011;2015;48.670;9.060;2023-03-01T15:58:24;35.40;;;21.30;;
4001;SDS011;2015;48.670;9.060;2023-03-01T16:00:56;31.33;;;20.23;;
4001;SDS011;2015;48.670;9.060;2023-03-01T16:03:32;31.67;;;21.23;;
4001;SDS011;2015;48.670;9.060;2023-03-01T16:06:04;32.73;;;21.73;;
4001;SDS011;2015;48.670;9.060;2023-03-01T16:08:36;33.30;;;21.70;;
4001;SDS011;2015;48.670;9.060;2023-03-01T16:11:13;29.57;;;20.00;;
4001;SDS011;2015;48.670;9.060;2023-03-01T16:13:47;35.57;;;22.60;;
4001;SDS011;2015;48.670;9.060;2023-03-01T16:16:19;36.20;;;20.80;;
4001;SDS011;2015;48.670;9.060;2023-03-01T16:18:51;27.47;;;18.47;;
4001;SDS011;2015;48.670;9.060;2023-03-01T16:21:25;35.90;;;22.00;;
4001;SDS011;2015;48.670;9.060;2023-03-01T16:23:57;32.90;;;20.07;;
4001;SDS011;2015;48.670;9.060;2023-03-01T16:26:29;30.33;;;20.23;;
4001;SDS011;2015;48.670;9.060;2023-03-01T16:29:01;32.73;;;20.70;;
4001;SDS011;2015;48.670;9.060;2023-03-01T16:31:33;30.67;;;20.13;;
4001;SDS011;2015;48.670;9.060;2023-03-01T16:34:05;36.43;;;23.17;;
4001;SDS011;2015;48.670;9.060;2023-03-01T16:36:37;34.03;;;22.27;;
4001;SDS011;2015;48.670;9.060;2023-03-01T16:39:09;29.47;;;20.40;;
4001;SDS011;2015;48.670;9.060;2023-03-01T16:41:41;32.27;;;20.83;;
4001;SDS011;2015;48.670;9.060;2023-03-01T16:44:14;34.87;;;21.80;;
4001;SDS011;2015;48.670;9.060;2023-03-01T16:46:45;30.50;;;19.47;;
4001;SDS011;2015;48.670;9.060;2023-03-01T16:49:17;29.77;;;20.83;;
4001;SDS011;2015;48.670;9.060;2023-03-01T16:51:49;34.10;;;21.90;;
4001;SDS011;2015;48.670;9.060;2023-03-01T16:54:21;38.60;;;21.53;;
4001;SDS011;2015;48.670;9.060;2023-03-01T16:56:53;28.47;;;18.53;;
4001;SDS011;2015;48.670;9.060;2023-03-01T16:59:24;35.88;;;21.60;;
4001;SDS011;2015;48.670;9.060;2023-03-01T17:01:56;34.00;;;21.77;;
4001;SDS011;2015;48.670;9.060;2023-03-01T17:04:28;30.33;;;20.80;;
4001;SDS011;2015;48.670;9.060;2023-03-01T17:07:00;33.40;;;20.70;;
4001;SDS011;2015;48.670;9.060;2023-03-01T17:09:35;35.73;;;20.57;;
4001;SDS011;2015;48.670;9.060;2023-03-01T17:12:07;29.90;;;18.30;;
4001;SDS011;2015;48.670;9.060;2023-03-01T17:14:39;24.03;;;18.10;;
4001;SDS011;2015;48.670;9.060;2023-03-01T17:17:12;29.00;;;18.30;;